• Join FlightAware (Why Join?)
  • Login
  • US Flag 
07:09PM EST


 

Airport Tracker/Info


-or-


 

Live Flight TrackerFlight Track Log ✈ SWA2975 ✈ 24-Jun-2013 ✈ KSLC - KMDW

Flight Track Log - Related Links

Times and Time Zones

All times are in EDT time to prevent confusion due to time zone crossing. See the SWA2975 flight status page for this flight to view local times or setup timezone preferences in your user account.

Time Position Orientation Groundspeed Altitude Reporting Facility
EDT Latitude Longitude Course Direction KTS MPH feet Rate Location/Type
06:15PM 39.8410 -104.7290 271° West 189 217 6,200  Level FlightAware
06:16PM 39.8430 -104.7560 276° West 199 229 7,100 1,800 Climbing FlightAware
06:16PM 39.8500 -104.7780 293° West 217 250 7,500 1,260 Climbing FlightAware
06:16PM 39.8640 -104.8050 304° West 245 282 8,000 1,680 Climbing FlightAware
06:17PM 39.8820 -104.8420 302° West 261 300 9,000 1,800 Climbing FlightAware
06:17PM 39.9110 -104.9020 302° West 269 310 10,200 1,920 Climbing FlightAware
06:18PM 39.9280 -104.9630 290° West 281 323 11,700 2,340 Climbing FlightAware
06:19PM 39.9330 -105.0400 275° West 294 338 13,500 2,040 Climbing FlightAware
06:20PM 39.9380 -105.1200 275° West 328 377 14,700 2,220 Climbing FlightAware
06:20PM 39.9430 -105.1930 275° West 330 380 16,500 2,880 Climbing FlightAware
06:21PM 39.9490 -105.2800 275° West 333 383 18,600 -120 Climbing FlightAware
06:24PM 40.0223 -104.8804 76° East  Level Estimated
06:25PM 40.0503 -104.7255 77° East  Level Estimated
06:26PM 40.0781 -104.5704 77° East  Level Estimated
06:27PM 40.1057 -104.4153 77° East  Level Estimated
06:28PM 40.1331 -104.2600 77° East  Level Estimated
06:29PM 40.1602 -104.1045 77° East  Level Estimated
06:30PM 40.1872 -103.9490 77° East  Level Estimated
06:31PM 40.2140 -103.7933 77° East  Level Estimated
06:32PM 40.2405 -103.6375 77° East  Level Estimated
06:33PM 40.2668 -103.4816 77° East  Level Estimated
06:34PM 40.2930 -103.3256 78° East  Level Estimated
06:35PM 40.3189 -103.1694 78° East  Level Estimated
06:36PM 40.3446 -103.0132 78° East  Level Estimated
06:37PM 40.3701 -102.8568 78° East  Level Estimated
06:38PM 40.3954 -102.7003 78° East  Level Estimated
06:39PM 40.4205 -102.5436 78° East  Level Estimated
06:40PM 40.4454 -102.3869 78° East  Level Estimated
06:41PM 40.4700 -102.2300 78° East  Level Estimated
06:42PM 40.4944 -102.0731 78° East  Level Estimated
06:43PM 40.5187 -101.9160 78° East  Level Estimated
06:44PM 40.5427 -101.7588 79° East  Level Estimated
06:45PM 40.5665 -101.6015 79° East  Level Estimated
06:46PM 40.5901 -101.4441 79° East  Level Estimated
06:47PM 40.6135 -101.2865 79° East  Level Estimated
06:48PM 40.6366 -101.1289 79° East  Level Estimated
06:49PM 40.6596 -100.9711 79° East  Level Estimated
06:50PM 40.6823 -100.8133 79° East  Level Estimated
06:51PM 40.7048 -100.6553 79° East  Level Estimated
06:52PM 40.7271 -100.4972 79° East  Level Estimated
06:53PM 40.7492 -100.3391 80° East  Level Estimated
06:54PM 40.7711 -100.1808 80° East  Level Estimated
06:55PM 40.7927 -100.0224 80° East  Level Estimated
06:56PM 40.8142 -99.8639 80° East  Level Estimated
06:57PM 40.8354 -99.7053 80° East  Level Estimated
06:58PM 40.8564 -99.5466 80° East  Level Estimated
06:59PM 40.8772 -99.3878 80° East  Level Estimated
07:00PM 40.8977 -99.2289 80° East  Level Estimated
07:01PM 40.9181 -99.0699 80° East  Level Estimated
07:02PM 40.9384 -98.9098 80° East  Level Estimated
07:03PM 40.9584 -98.7496 81° East  Level Estimated
07:04PM 40.9782 -98.5893 81° East  Level Estimated
07:05PM 40.9978 -98.4289 81° East  Level Estimated
07:06PM 41.0172 -98.2684 81° East  Level Estimated
07:07PM 41.0363 -98.1078 81° East  Level Estimated
07:08PM 41.0552 -97.9471 81° East  Level Estimated
07:09PM 41.0740 -97.7863 81° East  Level Estimated
07:10PM 41.0924 -97.6255 81° East  Level Estimated
07:11PM 41.1107 -97.4645 81° East  Level Estimated
07:12PM 41.1287 -97.3035 81° East  Level Estimated
07:13PM 41.1465 -97.1423 82° East  Level Estimated
07:14PM 41.1641 -96.9811 82° East  Level Estimated
07:15PM 41.1815 -96.8198 82° East  Level Estimated
07:16PM 41.1986 -96.6584 82° East  Level Estimated
07:17PM 41.2155 -96.4969 82° East  Level Estimated
07:18PM 41.2322 -96.3354 82° East  Level Estimated
07:19PM 41.2486 -96.1737 82° East  Level Estimated
07:20PM 41.2649 -96.0120 82° East  Level Estimated
07:21PM 41.2809 -95.8502 82° East  Level Estimated
07:22PM 41.2966 -95.6883 83° East  Level Estimated
07:23PM 41.3122 -95.5263 83° East  Level Estimated
07:24PM 41.3275 -95.3643 83° East  Level Estimated
07:25PM 41.3426 -95.2022 83° East  Level Estimated
07:26PM 41.3575 -95.0400 83° East  Level Estimated
07:27PM 41.3721 -94.8777 83° East  Level Estimated
07:28PM 41.3865 -94.7154 83° East  Level Estimated
07:29PM 41.4007 -94.5530 83° East  Level Estimated
07:30PM 41.4146 -94.3905 83° East  Level Estimated
07:31PM 41.4284 -94.2280 84° East  Level Estimated
07:32PM 41.4419 -94.0654 84° East  Level Estimated
07:33PM 41.4551 -93.9027 84° East  Level Estimated
07:34PM 41.4682 -93.7399 84° East  Level Estimated
07:35PM 41.4810 -93.5771 84° East  Level Estimated
07:36PM 41.4936 -93.4142 84° East  Level Estimated
07:37PM 41.5059 -93.2513 84° East  Level Estimated
07:38PM 41.5180 -93.0883 84° East  Level Estimated
07:39PM 41.5299 -92.9252 84° East  Level Estimated
07:40PM 41.5416 -92.7621 84° East  Level Estimated
07:41PM 41.5530 -92.5989 85° East  Level Estimated
07:42PM 41.5642 -92.4357 85° East  Level Estimated
07:43PM 41.5752 -92.2724 85° East  Level Estimated
07:44PM 41.5859 -92.1091 85° East  Level Estimated
07:45PM 41.5964 -91.9457 85° East  Level Estimated
07:46PM 41.6067 -91.7822 85° East  Level Estimated
07:47PM 41.6167 -91.6187 85° East  Level Estimated
07:48PM 41.6265 -91.4552 85° East  Level Estimated
07:49PM 41.6361 -91.2916 85° East  Level Estimated
07:50PM 41.6454 -91.1279 86° East  Level Estimated
07:51PM 41.6545 -90.9642 86° East  Level Estimated
07:52PM 41.6634 -90.8005 86° East  Level Estimated
07:53PM 41.6721 -90.6367 86° East  Level Estimated
07:54PM 41.6805 -90.4728 86° East  Level Estimated
07:55PM 41.6887 -90.3090 86° East  Level Estimated
07:56PM 41.6966 -90.1451 86° East  Level Estimated
07:57PM 41.7043 -89.9811 86° East  Level Estimated
07:58PM 41.7118 -89.8171 86° East  Level Estimated
07:59PM 41.7191 -89.6531 87° East  Level Estimated
08:00PM 41.7261 -89.4890 87° East  Level Estimated
08:01PM 41.7329 -89.3249 87° East  Level Estimated
08:02PM 41.7394 -89.1608 87° East  Level Estimated
08:03PM 41.7457 -88.9966 87° East  Level Estimated
08:04PM 41.7518 -88.8324 87° East  Level Estimated
08:06PM 41.0108 -111.9907 353° North  Level FlightAware Approximate
08:06PM 40.7740 -111.9740 353° North 154 177 5,500  Level FlightAware
08:06PM 40.7570 -111.9960 224° Southwest 209 241 6,400 1,560 Climbing FlightAware
08:06PM 40.7560 -112.0130 266° West 226 260 6,700 1,860 Climbing FlightAware
08:07PM 40.7520 -112.0420 260° West 248 285 7,400 1,440 Climbing FlightAware
08:07PM 40.7630 -112.0720 296° West 282 325 7,700 1,620 Climbing FlightAware
08:07PM 40.7810 -112.0830 335° Northwest 296 341 8,400 3,420 Climbing FlightAware
08:08PM 40.8480 -112.0740 North 299 344 11,700 3,240 Climbing FlightAware
08:08PM 40.8620 -112.0470 56° Northeast 320 368 12,200 2,520 Climbing FlightAware
08:09PM 40.8900 -111.9720 64° Northeast 345 397 14,100 2,700 Climbing FlightAware
08:10PM 40.9220 -111.8910 62° Northeast 361 415 16,000 2,640 Climbing FlightAware
08:11PM 40.9560 -111.8080 62° Northeast 369 425 17,900 2,280 Climbing FlightAware
08:11PM 40.9860 -111.7310 63° Northeast 384 442 19,100 2,220 Climbing FlightAware
08:12PM 41.0150 -111.6560 63° Northeast 386 444 20,700 1,560 Climbing FlightAware
08:13PM 41.0380 -111.5340 76° East 386 444 21,600 540 Climbing FlightAware
08:13PM 41.0490 -111.4610 79° East 386 444 21,600 2,160 Level FlightAware
08:14PM 41.0540 -111.3300 87° East 417 480 24,500 2,340 Climbing FlightAware
08:15PM 41.0640 -111.2090 84° East 420 483 25,300 540 Climbing FlightAware
08:15PM 41.0720 -111.1310 82° East 420 483 25,300  Level FlightAware
08:16PM 41.0790 -111.0480 84° East 420 483 25,300  Level FlightAware
08:17PM 41.0890 -110.9410 83° East 420 483 25,300  Level FlightAware
08:18PM 41.0960 -110.8630 83° East 420 483 25,300  Level FlightAware
08:18PM 41.1060 -110.7590 83° East 420 483 25,300 3,300 Level FlightAware
08:20PM 41.2286 -110.4697 83° East 472 543 31,800 3,480 Climbing Salt Lake Center
08:21PM 41.2697 -110.3083 71° East 480 552 33,000 1,080 Climbing Salt Lake Center
08:22PM 41.3186 -110.1175 71° East 487 560 34,100 900 Climbing Salt Lake Center
08:23PM 41.3603 -109.9514 71° East 492 566 34,900 780 Climbing Salt Lake Center
08:24PM 41.4089 -109.7556 72° East 499 574 35,800 720 Climbing Salt Lake Center
08:25PM 41.4514 -109.5842 72° East 507 583 36,400 480 Climbing Salt Lake Center
08:26PM 41.4950 -109.4089 72° East 515 593 36,900 240 Climbing Salt Lake Center
08:27PM 41.5472 -109.1994 72° East 523 602 37,000  Climbing Salt Lake Center
08:28PM 41.5889 -109.0181 73° East 521 600 37,000  Level Salt Lake Center
08:29PM 41.6053 -108.8344 83° East 516 594 37,000  Level Salt Lake Center
08:30PM 41.6214 -108.6233 84° East 512 589 37,000  Level Salt Lake Center
08:31PM 41.6350 -108.4425 84° East 510 587 37,000  Level Salt Lake Center
08:32PM 41.6508 -108.2314 84° East 512 589 37,000  Level Salt Lake Center
08:33PM 41.6631 -108.0517 85° East 510 587 37,000  Level Salt Lake Center
08:34PM 41.6756 -107.8728 85° East 505 581 37,000  Level Salt Lake Center
08:40PM 41.7510 -106.6820 85° East 506 582 37,000  Level FlightAware
08:41PM 41.7570 -106.5840 85° East 506 582 37,000  Level FlightAware
08:41PM 41.7610 -106.4200 88° East 509 586 37,000  Level FlightAware
08:42PM 41.7590 -106.2860 91° East 512 589 37,000  Level FlightAware
08:43PM 41.7560 -106.1490 92° East 512 589 37,000  Level FlightAware
08:44PM 41.7540 -106.0190 91° East 512 589 37,000  Level FlightAware
08:44PM 41.7520 -105.8920 91° East 512 589 37,000  Level FlightAware
08:45PM 41.7500 -105.7590 91° East 513 590 37,000  Level FlightAware
08:46PM 41.7480 -105.6220 91° East 514 592 37,000  Level FlightAware
08:46PM 41.7450 -105.4860 92° East 515 593 37,000  Level FlightAware
08:47PM 41.7410 -105.3010 92° East 516 594 37,000  Level FlightAware
08:48PM 41.7380 -105.1790 92° East 518 596 37,000  Level FlightAware
08:49PM 41.7350 -105.0470 92° East 519 597 37,000  Level FlightAware
08:49PM 41.7310 -104.9060 92° East 520 598 37,000  Level FlightAware
08:50PM 41.7280 -104.7770 92° East 520 598 37,000  Level FlightAware
08:51PM 41.7240 -104.6500 92° East 520 598 37,000  Level FlightAware
08:52PM 41.7070 -104.5010 99° East 523 602 37,000  Level FlightAware
08:52PM 41.6890 -104.3760 101° East 523 602 37,000  Level FlightAware
08:53PM 41.6690 -104.2360 101° East 521 600 37,000  Level FlightAware
08:54PM 41.6520 -104.1110 100° East 516 594 37,000  Level FlightAware
08:54PM 41.6320 -103.9740 101° East 511 588 37,000  Level FlightAware
08:55PM 41.6140 -103.8490 101° East 512 589 37,000  Level FlightAware
08:56PM 41.5940 -103.7130 101° East 513 590 37,000  Level FlightAware
08:56PM 41.5760 -103.5890 101° East 514 592 37,000  Level FlightAware
08:57PM 41.5540 -103.4470 102° East 514 592 37,000  Level FlightAware
08:58PM 41.5370 -103.3350 101° East 513 590 37,000  Level FlightAware
08:59PM 41.5180 -103.1870 100° East 506 582 37,000  Level FlightAware
08:59PM 41.5070 -103.0750 97° East 504 580 37,000  Level FlightAware
09:00PM 41.4900 -102.9010 97° East 501 577 37,000  Level FlightAware
09:01PM 41.4780 -102.7750 97° East 502 578 37,000  Level FlightAware
09:01PM 41.4700 -102.6810 96° East 502 578 37,000  Level FlightAware
09:02PM 41.4530 -102.5070 97° East 500 575 37,000  Level FlightAware
09:03PM 41.4430 -102.3850 96° East 500 575 37,000  Level FlightAware
09:04PM 41.4420 -102.2490 91° East 498 573 37,000  Level FlightAware
09:04PM 41.4420 -102.1160 90° East 495 570 37,000  Level FlightAware
09:06PM 41.4420 -101.9090 90° East 489 563 37,000  Level FlightAware
09:06PM 41.4420 -101.7830 90° East 487 560 37,000  Level FlightAware
09:07PM 41.4410 -101.6630 91° East 484 557 37,000  Level FlightAware
09:08PM 41.4400 -101.5360 91° East 481 554 37,000  Level FlightAware
09:08PM 41.4390 -101.4170 91° East 477 549 37,000  Level FlightAware
09:10PM 41.4380 -101.2240 90° East 475 547 37,000  Level FlightAware
09:10PM 41.4380 -101.1390 90° East 475 547 37,000  Level FlightAware
09:11PM 41.4380 -101.0200 90° East 475 547 37,000  Level FlightAware
09:11PM 41.4380 -100.9350 90° East 475 547 37,000  Level FlightAware
09:12PM 41.4380 -100.8150 90° East 475 547 37,000  Level FlightAware
09:13PM 41.4380 -100.7210 90° East 475 547 37,000  Level FlightAware
09:14PM 41.4380 -100.6010 90° East 475 547 37,000  Level FlightAware
09:14PM 41.4380 -100.5090 90° East 475 547 37,000  Level FlightAware
09:15PM 41.4380 -100.3920 90° East 475 547 37,000  Level FlightAware
09:16PM 41.4380 -100.3020 90° East 475 547 37,000  Level FlightAware
09:16PM 41.4380 -100.1850 90° East 475 547 37,000  Level FlightAware
09:17PM 41.4380 -100.0900 90° East 475 547 37,000  Level FlightAware
09:18PM 41.4380 -99.9710 90° East 475 547 37,000  Level FlightAware
09:19PM 41.4380 -99.8780 90° East 475 547 37,000  Level FlightAware
09:19PM 41.4111 -99.5597 90° East 474 545 37,000  Level Denver Center
09:20PM 41.4072 -99.3844 92° East 474 545 37,000 120 Level Denver Center
09:26PM 41.3490 -98.3170 92° East 467 537 37,900 180 Climbing FlightAware
09:27PM 41.3220 -98.2220 111° Southeast 468 539 38,300 240 Climbing FlightAware
09:27PM 41.2910 -98.1090 110° East 468 539 38,300 420 Level FlightAware
09:28PM 41.2460 -97.9680 113° Southeast 475 547 39,000 420 Climbing FlightAware
09:29PM 41.2000 -97.8190 112° Southeast 476 548 39,000  Level FlightAware
09:30PM 41.1660 -97.7100 112° Southeast 476 548 39,000  Level FlightAware
09:30PM 41.1320 -97.6020 113° Southeast 471 542 39,000  Level FlightAware
09:31PM 41.0970 -97.4870 112° Southeast 461 531 39,000  Level FlightAware
09:32PM 41.0640 -97.3770 112° Southeast 458 527 39,000  Level FlightAware
09:33PM 41.0350 -97.2700 110° East 461 531 39,000  Level FlightAware
09:33PM 41.0280 -97.1480 94° East 469 540 39,000  Level FlightAware
09:34PM 41.0340 -97.0260 86° East 469 540 39,000  Level FlightAware
09:35PM 41.0400 -96.9010 86° East 468 539 39,000  Level FlightAware
09:35PM 41.0450 -96.7950 86° East 466 536 39,000  Level FlightAware
09:36PM 41.0510 -96.6670 86° East 465 535 39,000  Level FlightAware
09:37PM 41.0560 -96.5490 87° East 466 536 39,000  Level FlightAware
09:37PM 41.0610 -96.4350 87° East 467 537 39,000  Level FlightAware
09:38PM 41.0670 -96.3100 86° East 468 539 39,000  Level FlightAware
09:39PM 41.0720 -96.1940 87° East 467 537 39,000  Level FlightAware
09:40PM 41.0770 -96.0630 87° East 468 539 39,000  Level FlightAware
09:40PM 41.0820 -95.9500 87° East 469 540 39,000  Level FlightAware
09:41PM 41.0860 -95.8310 87° East 470 541 39,000  Level FlightAware
09:42PM 41.0910 -95.7040 87° East 464 534 39,000  Level FlightAware
09:42PM 41.0950 -95.6030 87° East 460 529 39,000  Level FlightAware
09:43PM 41.1000 -95.4770 87° East 457 526 39,000  Level FlightAware
09:44PM 41.1040 -95.3630 87° East 457 526 39,000  Level FlightAware
09:45PM 41.1080 -95.2340 88° East 455 524 39,000  Level FlightAware
09:45PM 41.1120 -95.1170 87° East 454 522 39,000  Level FlightAware
09:46PM 41.1160 -95.0050 87° East 452 520 39,000  Level FlightAware
09:47PM 41.1190 -94.8900 88° East 451 519 39,000  Level FlightAware
09:47PM 41.1220 -94.7740 88° East 450 518 39,000  Level FlightAware
09:48PM 41.1260 -94.6640 87° East 450 518 39,000  Level FlightAware
09:49PM 41.1290 -94.5530 88° East 450 518 39,000  Level FlightAware
09:49PM 41.1320 -94.4280 88° East 451 519 39,000  Level FlightAware
09:50PM 41.1350 -94.3110 88° East 451 519 39,000  Level FlightAware
09:51PM 41.1380 -94.2010 88° East 451 519 39,000  Level FlightAware
09:51PM 41.1410 -94.1000 88° East 451 519 39,000  Level FlightAware
09:52PM 41.1430 -93.9770 89° East 450 518 39,000  Level FlightAware
09:53PM 41.1460 -93.8530 88° East 449 517 39,000  Level FlightAware
09:54PM 41.1490 -93.7080 88° East 446 513 39,000  Level FlightAware
09:54PM 41.1520 -93.6190 87° East 446 513 39,000  Level FlightAware
09:55PM 41.1540 -93.4760 89° East 440 506 39,000  Level FlightAware
09:56PM 41.1560 -93.3790 88° East 438 504 39,000  Level FlightAware
09:57PM 41.1580 -93.2400 89° East 435 501 39,000  Level FlightAware
09:57PM 41.1590 -93.1350 89° East 433 498 39,000  Level FlightAware
09:58PM 41.1610 -93.0170 89° East 434 499 39,000  Level FlightAware
09:59PM 41.1630 -92.9100 89° East 434 499 39,000  Level FlightAware
09:59PM 41.1640 -92.7990 89° East 433 498 39,000  Level FlightAware
10:00PM 41.1660 -92.6850 89° East 431 496 39,000 -360 Level FlightAware
10:01PM 41.1670 -92.5810 89° East 430 495 38,500 -900 Descending FlightAware
10:01PM 41.1670 -92.4870 90° East 433 498 37,900 -1,020 Descending FlightAware
10:02PM 41.1690 -92.3470 89° East 434 499 37,100 -600 Descending FlightAware
10:03PM 41.1700 -92.2420 89° East 434 499 37,000 -120 Descending FlightAware
10:04PM 41.1700 -92.1480 90° East 435 501 37,000  Level FlightAware
10:04PM 41.1710 -92.0190 89° East 437 503 37,000  Level FlightAware
10:05PM 41.1720 -91.9160 89° East 437 503 37,000 -240 Level FlightAware
10:06PM 41.1720 -91.7950 90° East 433 498 36,700 -1,140 Descending FlightAware
10:06PM 41.1730 -91.6810 89° East 424 488 35,400 -1,800 Descending FlightAware
10:07PM 41.1730 -91.5860 90° East 442 509 34,300 -1,500 Descending FlightAware
10:08PM 41.1730 -91.4630 90° East 456 525 33,400 -2,100 Descending FlightAware
10:09PM 41.1730 -91.3390 90° East 463 533 31,300 -2,640 Descending FlightAware
10:09PM 41.1730 -91.2230 90° East 461 531 29,700 -2,340 Descending FlightAware
10:10PM 41.1730 -91.0990 90° East 458 527 28,000 -2,340 Descending FlightAware
10:11PM 41.1730 -90.9950 90° East 453 521 26,600 -1,680 Descending FlightAware
10:11PM 41.1720 -90.8770 91° East 447 514 25,800 -1,080 Descending FlightAware
10:12PM 41.1720 -90.7570 90° East 445 512 25,100 -960 Descending FlightAware
10:13PM 41.1710 -90.6430 91° East 465 535 24,500 -960 Descending FlightAware
10:13PM 41.1700 -90.5180 91° East 469 540 23,800 -1,020 Descending FlightAware
10:14PM 41.1690 -90.4010 91° East 465 535 23,100 -1,020 Descending FlightAware
10:15PM 41.1680 -90.2820 91° East 462 532 22,400 -960 Descending FlightAware
10:16PM 41.1670 -90.1750 91° East 452 520 21,800 -960 Descending FlightAware
10:16PM 41.1660 -90.0550 91° East 446 513 21,100 -1,260 Descending FlightAware
10:17PM 41.1640 -89.9320 91° East 433 498 20,000 -1,860 Descending FlightAware
10:18PM 41.1630 -89.8330 91° East 426 490 18,600 -2,340 Descending FlightAware
10:18PM 41.1610 -89.7120 91° East 420 483 16,800 -2,400 Descending FlightAware
10:19PM 41.1600 -89.6030 91° East 416 479 15,100 -1,620 Descending FlightAware
10:20PM 41.1650 -89.5060 86° East 414 476 14,600 -840 Descending FlightAware
10:20PM 41.1730 -89.3970 84° East 414 476 14,000 -480 Descending FlightAware
10:21PM 41.1790 -89.3030 85° East 411 473 14,000  Level FlightAware
10:22PM 41.1870 -89.1890 85° East 413 475 14,000 -240 Level FlightAware
10:23PM 41.1940 -89.0810 85° East 411 473 13,700 -720 Descending FlightAware
10:23PM 41.2000 -88.9860 85° East 410 472 13,100 -1,020 Descending FlightAware
10:24PM 41.2110 -88.8720 83° East 400 460 12,300 -1,380 Descending FlightAware
10:25PM 41.2520 -88.7890 57° Northeast 369 425 11,100 -1,620 Descending FlightAware
10:25PM 41.2960 -88.7200 50° Northeast 335 386 10,100 -1,320 Descending FlightAware
10:26PM 41.3260 -88.6720 50° Northeast 311 358 9,500 -1,500 Descending FlightAware
10:26PM 41.3520 -88.6310 50° Northeast 308 354 8,600 -1,740 Descending FlightAware
10:26PM 41.3610 -88.6170 49° Northeast 308 354 8,400 -1,800 Descending FlightAware
10:27PM 41.3880 -88.5730 51° Northeast 313 360 7,400 -1,920 Descending FlightAware
10:27PM 41.4100 -88.5290 56° Northeast 320 368 6,600 -1,440 Descending FlightAware
10:28PM 41.4200 -88.4750 76° East 316 364 6,100 -720 Descending FlightAware
10:28PM 41.4290 -88.4290 75° East 315 362 6,000 -120 Descending FlightAware
10:29PM 41.4410 -88.3650 76° East 317 365 6,000  Level FlightAware
10:29PM 41.4450 -88.3430 76° East 311 358 6,000  Level FlightAware
10:30PM 41.4550 -88.2900 76° East 308 354 6,000  Level FlightAware
10:30PM 41.4650 -88.2380 76° East 306 352 6,000 -360 Level FlightAware
10:30PM 41.4740 -88.1890 76° East 305 351 5,700 -1,020 Descending FlightAware
10:31PM 41.4810 -88.1420 79° East 304 350 5,100 -780 Descending FlightAware
10:31PM 41.4900 -88.0910 77° East 301 346 5,000 -120 Descending FlightAware
10:32PM 41.4980 -88.0380 79° East 299 344 5,000 -120 Level FlightAware
10:32PM 41.5080 -87.9800 77° East 301 346 4,900 -840 Descending FlightAware
10:33PM 41.5160 -87.9300 78° East 304 350 4,200 -1,320 Descending FlightAware
10:33PM 41.5240 -87.8790 78° East 297 342 3,700 -840 Descending FlightAware
10:34PM 41.5300 -87.8420 78° East 286 329 3,500 -540 Descending FlightAware
10:34PM 41.5370 -87.7960 78° East 269 310 3,300 -480 Descending FlightAware
10:35PM 41.5460 -87.7460 76° East 256 295 3,100 -420 Descending FlightAware
10:35PM 41.5520 -87.7230 71° East 248 285 3,000 -240 Descending FlightAware
10:35PM 41.5640 -87.7040 50° Northeast 240 276 3,000  Level FlightAware
10:36PM 41.5820 -87.6740 51° Northeast 239 275 3,000  Level FlightAware
10:36PM 41.6000 -87.6440 51° Northeast 241 277 3,000  Level FlightAware
10:37PM 41.6190 -87.6120 52° Northeast 241 277 3,000  Level FlightAware
10:37PM 41.6290 -87.5950 52° Northeast 241 277 3,000  Level FlightAware
10:37PM 41.6430 -87.5830 33° Northeast 225 259 3,000 -240 Level FlightAware
10:37PM 41.6530 -87.5800 13° North 211 243 2,900 -480 Descending FlightAware
10:38PM 41.6760 -87.5880 345° North 179 206 2,700 -540 Descending FlightAware
10:38PM 41.6860 -87.6030 312° West 166 191 2,500 -300 Descending FlightAware
10:38PM 41.6960 -87.6250 301° West 164 189 2,500  Level FlightAware
10:39PM 41.7100 -87.6470 310° West 164 189 2,500 -540 Level FlightAware
10:39PM 41.7270 -87.6690 316° Northwest 174 200 2,000 -1,140 Descending FlightAware
10:39PM 41.7320 -87.6730 329° Northwest 185 213 1,800 -480 Descending FlightAware
10:40PM 41.7560 -87.6800 348° North 177 204 1,700 -120 Descending FlightAware
10:41PM 41.7940 -87.6770 North 185 213 1,700  Level FlightAware
10:41PM 41.8010 -87.6670 47° Northeast 190 219 1,700  Level FlightAware
10:41PM 41.8120 -87.6570 34° Northeast 184 212 1,700  Level FlightAware
10:41PM 41.8220 -87.6560 North 169 194 1,700  Level FlightAware
10:42PM 41.8300 -87.6630 327° Northwest 157 181 1,700  Level FlightAware
10:42PM 41.8350 -87.6760 297° West 146 168 1,700 -180 Level FlightAware
10:42PM 41.8290 -87.6950 247° West 126 145 1,600 -480 Descending FlightAware
10:43PM 41.8170 -87.7110 225° Southwest 125 144 1,300 -660 Descending FlightAware
10:43PM 41.8050 -87.7270 225° Southwest 134 154 1,000 -360 Descending FlightAware
10:44PM 41.7950 -87.7400 224° Southwest 134 154 1,000 -120 Level FlightAware
10:44PM 41.7800 -87.7569 224° Southwest 138 159 900 -240 Descending Chicago Center